sensor_id;sensor_type;location;lat;lon;timestamp;temperature;humidity
62916;DHT22;49010;51.230;-2.306;2023-01-23T00:02:39;-0.60;99.90
62916;DHT22;49010;51.230;-2.306;2023-01-23T00:06:21;-0.70;99.90
62916;DHT22;49010;51.230;-2.306;2023-01-23T00:10:03;-0.60;99.90
62916;DHT22;49010;51.230;-2.306;2023-01-23T00:13:46;-0.70;99.90
62916;DHT22;49010;51.230;-2.306;2023-01-23T00:17:28;-0.70;99.90
62916;DHT22;49010;51.230;-2.306;2023-01-23T00:21:13;-0.80;99.90
62916;DHT22;49010;51.230;-2.306;2023-01-23T00:24:55;-0.80;99.90
62916;DHT22;49010;51.230;-2.306;2023-01-23T00:28:37;-0.80;99.90
62916;DHT22;49010;51.230;-2.306;2023-01-23T00:32:19;-0.90;99.90
62916;DHT22;49010;51.230;-2.306;2023-01-23T00:36:01;-0.90;99.90
62916;DHT22;49010;51.230;-2.306;2023-01-23T00:39:43;-0.90;99.90
62916;DHT22;49010;51.230;-2.306;2023-01-23T00:43:26;-0.90;99.90
62916;DHT22;49010;51.230;-2.306;2023-01-23T00:47:08;-1.00;99.90
62916;DHT22;49010;51.230;-2.306;2023-01-23T00:50:50;-1.00;99.90
62916;DHT22;49010;51.230;-2.306;2023-01-23T00:54:32;-1.00;99.90
62916;DHT22;49010;51.230;-2.306;2023-01-23T00:58:15;-1.00;99.90
62916;DHT22;49010;51.230;-2.306;2023-01-23T01:01:56;-1.10;99.90
62916;DHT22;49010;51.230;-2.306;2023-01-23T01:05:38;-1.10;99.90
62916;DHT22;49010;51.230;-2.306;2023-01-23T01:09:20;-1.10;99.90
62916;DHT22;49010;51.230;-2.306;2023-01-23T01:13:02;-1.10;99.90
62916;DHT22;49010;51.230;-2.306;2023-01-23T01:16:44;-1.10;99.90
62916;DHT22;49010;51.230;-2.306;2023-01-23T01:20:28;-1.10;99.90
62916;DHT22;49010;51.230;-2.306;2023-01-23T01:24:10;-1.00;99.90
62916;DHT22;49010;51.230;-2.306;2023-01-23T01:27:52;-1.00;99.90
62916;DHT22;49010;51.230;-2.306;2023-01-23T01:31:34;-0.90;99.90
62916;DHT22;49010;51.230;-2.306;2023-01-23T01:35:16;-0.80;99.90
62916;DHT22;49010;51.230;-2.306;2023-01-23T01:38:57;-0.80;99.90
62916;DHT22;49010;51.230;-2.306;2023-01-23T01:42:44;-0.70;99.90
62916;DHT22;49010;51.230;-2.306;2023-01-23T01:46:29;-0.60;99.90
62916;DHT22;49010;51.230;-2.306;2023-01-23T01:50:11;-0.60;99.90
62916;DHT22;49010;51.230;-2.306;2023-01-23T01:54:08;-0.60;99.90
62916;DHT22;49010;51.230;-2.306;2023-01-23T01:57:51;-0.60;99.90
62916;DHT22;49010;51.230;-2.306;2023-01-23T02:01:35;-0.60;99.90
62916;DHT22;49010;51.230;-2.306;2023-01-23T02:05:23;-0.70;99.90
62916;DHT22;49010;51.230;-2.306;2023-01-23T02:09:23;-0.70;99.90
62916;DHT22;49010;51.230;-2.306;2023-01-23T02:17:17;-0.80;99.90
62916;DHT22;49010;51.230;-2.306;2023-01-23T02:21:04;-0.80;99.90
62916;DHT22;49010;51.230;-2.306;2023-01-23T02:24:56;-0.90;99.90
62916;DHT22;49010;51.230;-2.306;2023-01-23T02:28:50;-0.90;99.90
62916;DHT22;49010;51.230;-2.306;2023-01-23T02:32:33;-1.00;99.90
62916;DHT22;49010;51.230;-2.306;2023-01-23T02:36:18;-1.00;99.90
62916;DHT22;49010;51.230;-2.306;2023-01-23T02:40:00;-1.10;99.90
62916;DHT22;49010;51.230;-2.306;2023-01-23T02:43:44;-1.10;99.90
62916;DHT22;49010;51.230;-2.306;2023-01-23T02:47:26;-1.10;99.90
62916;DHT22;49010;51.230;-2.306;2023-01-23T02:51:10;-1.10;99.90
62916;DHT22;49010;51.230;-2.306;2023-01-23T02:54:51;-1.20;99.90
62916;DHT22;49010;51.230;-2.306;2023-01-23T02:58:33;-1.20;99.90
62916;DHT22;49010;51.230;-2.306;2023-01-23T03:02:34;-1.30;99.90
62916;DHT22;49010;51.230;-2.306;2023-01-23T03:06:16;-1.30;99.90
62916;DHT22;49010;51.230;-2.306;2023-01-23T03:09:58;-1.30;99.90
62916;DHT22;49010;51.230;-2.306;2023-01-23T03:13:40;-1.30;99.90
62916;DHT22;49010;51.230;-2.306;2023-01-23T03:17:22;-1.40;99.90
62916;DHT22;49010;51.230;-2.306;2023-01-23T03:21:05;-1.40;99.90
62916;DHT22;49010;51.230;-2.306;2023-01-23T03:24:46;-1.50;99.90
62916;DHT22;49010;51.230;-2.306;2023-01-23T03:28:28;-1.50;99.90
62916;DHT22;49010;51.230;-2.306;2023-01-23T03:32:29;-1.50;99.90
62916;DHT22;49010;51.230;-2.306;2023-01-23T03:36:12;-1.50;99.90
62916;DHT22;49010;51.230;-2.306;2023-01-23T03:39:53;-1.60;99.90
62916;DHT22;49010;51.230;-2.306;2023-01-23T03:43:54;-1.60;99.90
62916;DHT22;49010;51.230;-2.306;2023-01-23T03:47:37;-1.60;99.90
62916;DHT22;49010;51.230;-2.306;2023-01-23T03:51:19;-1.60;99.90
62916;DHT22;49010;51.230;-2.306;2023-01-23T03:55:00;-1.60;99.90
62916;DHT22;49010;51.230;-2.306;2023-01-23T03:58:42;-1.60;99.90
62916;DHT22;49010;51.230;-2.306;2023-01-23T04:02:24;-1.70;99.90
62916;DHT22;49010;51.230;-2.306;2023-01-23T04:06:06;-1.70;99.90
62916;DHT22;49010;51.230;-2.306;2023-01-23T04:09:48;-1.70;99.90
62916;DHT22;49010;51.230;-2.306;2023-01-23T04:13:30;-1.80;99.90
62916;DHT22;49010;51.230;-2.306;2023-01-23T04:17:12;-1.80;99.90
62916;DHT22;49010;51.230;-2.306;2023-01-23T04:20:54;-1.80;99.90
62916;DHT22;49010;51.230;-2.306;2023-01-23T04:24:36;-1.80;99.90
62916;DHT22;49010;51.230;-2.306;2023-01-23T04:28:18;-1.80;99.90
62916;DHT22;49010;51.230;-2.306;2023-01-23T04:32:00;-1.90;99.90
62916;DHT22;49010;51.230;-2.306;2023-01-23T04:35:56;-1.90;99.90
62916;DHT22;49010;51.230;-2.306;2023-01-23T04:39:38;-1.90;99.90
62916;DHT22;49010;51.230;-2.306;2023-01-23T04:43:20;-1.90;99.90
62916;DHT22;49010;51.230;-2.306;2023-01-23T04:47:02;-1.90;99.90
62916;DHT22;49010;51.230;-2.306;2023-01-23T04:50:44;-1.90;99.90
62916;DHT22;49010;51.230;-2.306;2023-01-23T04:54:26;-2.00;99.90
62916;DHT22;49010;51.230;-2.306;2023-01-23T04:58:08;-1.20;99.90
62916;DHT22;49010;51.230;-2.306;2023-01-23T05:01:51;-0.80;99.90
62916;DHT22;49010;51.230;-2.306;2023-01-23T05:05:33;-0.80;99.90
62916;DHT22;49010;51.230;-2.306;2023-01-23T05:09:15;-0.90;99.90
62916;DHT22;49010;51.230;-2.306;2023-01-23T05:12:57;-0.90;99.90
62916;DHT22;49010;51.230;-2.306;2023-01-23T05:16:39;-1.00;99.90
62916;DHT22;49010;51.230;-2.306;2023-01-23T05:20:21;-1.00;99.90
62916;DHT22;49010;51.230;-2.306;2023-01-23T05:24:04;-1.10;99.90
62916;DHT22;49010;51.230;-2.306;2023-01-23T05:27:46;-1.20;99.90
62916;DHT22;49010;51.230;-2.306;2023-01-23T05:31:28;-1.30;99.90
62916;DHT22;49010;51.230;-2.306;2023-01-23T05:35:10;-1.30;99.90
62916;DHT22;49010;51.230;-2.306;2023-01-23T05:38:54;-1.40;99.90
62916;DHT22;49010;51.230;-2.306;2023-01-23T05:42:35;-1.50;99.90
62916;DHT22;49010;51.230;-2.306;2023-01-23T05:46:17;-1.50;99.90
62916;DHT22;49010;51.230;-2.306;2023-01-23T05:49:59;-1.60;99.90
62916;DHT22;49010;51.230;-2.306;2023-01-23T05:53:41;-1.70;99.90
62916;DHT22;49010;51.230;-2.306;2023-01-23T05:57:23;-1.80;99.90
62916;DHT22;49010;51.230;-2.306;2023-01-23T06:01:05;-1.80;99.90
62916;DHT22;49010;51.230;-2.306;2023-01-23T06:04:48;-1.90;99.90
62916;DHT22;49010;51.230;-2.306;2023-01-23T06:08:30;-2.00;99.90
62916;DHT22;49010;51.230;-2.306;2023-01-23T06:12:11;-2.10;99.90
62916;DHT22;49010;51.230;-2.306;2023-01-23T06:15:54;-2.10;99.90
62916;DHT22;49010;51.230;-2.306;2023-01-23T06:19:36;-2.20;99.90
62916;DHT22;49010;51.230;-2.306;2023-01-23T06:23:17;-2.20;99.90
62916;DHT22;49010;51.230;-2.306;2023-01-23T06:26:59;-2.30;99.90
62916;DHT22;49010;51.230;-2.306;2023-01-23T06:30:41;-2.30;99.90
62916;DHT22;49010;51.230;-2.306;2023-01-23T06:34:23;-2.30;99.90
62916;DHT22;49010;51.230;-2.306;2023-01-23T06:38:04;-2.40;99.90
62916;DHT22;49010;51.230;-2.306;2023-01-23T06:41:46;-2.40;99.90
62916;DHT22;49010;51.230;-2.306;2023-01-23T06:45:28;-2.40;99.90
62916;DHT22;49010;51.230;-2.306;2023-01-23T06:49:10;-2.40;99.90
62916;DHT22;49010;51.230;-2.306;2023-01-23T06:52:52;-2.50;99.90
62916;DHT22;49010;51.230;-2.306;2023-01-23T06:56:33;-2.40;99.90
62916;DHT22;49010;51.230;-2.306;2023-01-23T07:00:16;-2.40;99.90
62916;DHT22;49010;51.230;-2.306;2023-01-23T07:03:57;-2.40;99.90
62916;DHT22;49010;51.230;-2.306;2023-01-23T07:07:39;-2.50;99.90
62916;DHT22;49010;51.230;-2.306;2023-01-23T07:11:21;-2.50;99.90
62916;DHT22;49010;51.230;-2.306;2023-01-23T07:15:04;-2.40;99.90
62916;DHT22;49010;51.230;-2.306;2023-01-23T07:18:45;-2.40;99.90
62916;DHT22;49010;51.230;-2.306;2023-01-23T07:22:27;-2.50;99.90
62916;DHT22;49010;51.230;-2.306;2023-01-23T07:26:09;-2.50;99.90
62916;DHT22;49010;51.230;-2.306;2023-01-23T07:29:52;-2.50;99.90
62916;DHT22;49010;51.230;-2.306;2023-01-23T07:33:33;-2.50;99.90
62916;DHT22;49010;51.230;-2.306;2023-01-23T07:37:15;-2.50;99.90
62916;DHT22;49010;51.230;-2.306;2023-01-23T07:40:58;-2.50;99.90
62916;DHT22;49010;51.230;-2.306;2023-01-23T07:44:40;-2.50;99.90
62916;DHT22;49010;51.230;-2.306;2023-01-23T07:48:24;-2.50;99.90
62916;DHT22;49010;51.230;-2.306;2023-01-23T07:52:08;-2.50;99.90
62916;DHT22;49010;51.230;-2.306;2023-01-23T07:55:50;-2.50;99.90
62916;DHT22;49010;51.230;-2.306;2023-01-23T07:59:32;-2.50;99.90
62916;DHT22;49010;51.230;-2.306;2023-01-23T08:03:14;-2.50;99.90
62916;DHT22;49010;51.230;-2.306;2023-01-23T08:06:55;-2.50;99.90
62916;DHT22;49010;51.230;-2.306;2023-01-23T08:10:37;-2.50;99.90
62916;DHT22;49010;51.230;-2.306;2023-01-23T08:14:19;-2.50;99.90
62916;DHT22;49010;51.230;-2.306;2023-01-23T08:18:01;-2.50;99.90
62916;DHT22;49010;51.230;-2.306;2023-01-23T08:21:43;-2.50;99.90
62916;DHT22;49010;51.230;-2.306;2023-01-23T08:25:25;-2.40;99.90
62916;DHT22;49010;51.230;-2.306;2023-01-23T08:29:07;-2.40;99.90
62916;DHT22;49010;51.230;-2.306;2023-01-23T08:32:49;-2.40;99.90
62916;DHT22;49010;51.230;-2.306;2023-01-23T08:36:31;-2.40;99.90
62916;DHT22;49010;51.230;-2.306;2023-01-23T08:40:13;-2.30;99.90
62916;DHT22;49010;51.230;-2.306;2023-01-23T08:43:54;-2.30;99.90
62916;DHT22;49010;51.230;-2.306;2023-01-23T08:47:38;-2.20;99.90
62916;DHT22;49010;51.230;-2.306;2023-01-23T08:51:21;-2.20;99.90
62916;DHT22;49010;51.230;-2.306;2023-01-23T08:55:03;-2.10;99.90
62916;DHT22;49010;51.230;-2.306;2023-01-23T08:58:45;-2.00;99.90
62916;DHT22;49010;51.230;-2.306;2023-01-23T09:02:27;-2.00;99.90
62916;DHT22;49010;51.230;-2.306;2023-01-23T09:06:13;-1.90;99.90
62916;DHT22;49010;51.230;-2.306;2023-01-23T09:09:55;-1.80;99.90
62916;DHT22;49010;51.230;-2.306;2023-01-23T09:13:37;-1.70;99.90
62916;DHT22;49010;51.230;-2.306;2023-01-23T09:17:19;-1.60;99.90
62916;DHT22;49010;51.230;-2.306;2023-01-23T09:21:05;-1.50;99.90
62916;DHT22;49010;51.230;-2.306;2023-01-23T09:24:49;-1.40;99.90
62916;DHT22;49010;51.230;-2.306;2023-01-23T09:28:31;-1.30;99.90
62916;DHT22;49010;51.230;-2.306;2023-01-23T09:32:13;-1.20;99.90
62916;DHT22;49010;51.230;-2.306;2023-01-23T09:35:55;-1.10;99.90
62916;DHT22;49010;51.230;-2.306;2023-01-23T09:39:38;-1.00;99.90
62916;DHT22;49010;51.230;-2.306;2023-01-23T09:47:05;-0.80;99.90
62916;DHT22;49010;51.230;-2.306;2023-01-23T09:51:01;-0.70;99.90
62916;DHT22;49010;51.230;-2.306;2023-01-23T09:54:47;-0.50;99.90
62916;DHT22;49010;51.230;-2.306;2023-01-23T09:58:39;-0.40;99.90
62916;DHT22;49010;51.230;-2.306;2023-01-23T10:02:22;-0.20;99.90
62916;DHT22;49010;51.230;-2.306;2023-01-23T10:06:25;0.10;99.90
62916;DHT22;49010;51.230;-2.306;2023-01-23T10:22:03;2.30;99.90
62916;DHT22;49010;51.230;-2.306;2023-01-23T10:25:48;2.80;99.90
62916;DHT22;49010;51.230;-2.306;2023-01-23T10:29:38;3.30;99.90
62916;DHT22;49010;51.230;-2.306;2023-01-23T10:33:49;3.80;99.90
62916;DHT22;49010;51.230;-2.306;2023-01-23T10:37:47;4.00;99.90
62916;DHT22;49010;51.230;-2.306;2023-01-23T10:41:32;4.50;99.90
62916;DHT22;49010;51.230;-2.306;2023-01-23T10:45:17;5.00;99.90
62916;DHT22;49010;51.230;-2.306;2023-01-23T10:49:01;5.60;99.90
62916;DHT22;49010;51.230;-2.306;2023-01-23T10:52:44;6.40;99.90
62916;DHT22;49010;51.230;-2.306;2023-01-23T10:56:27;7.20;99.90
62916;DHT22;49010;51.230;-2.306;2023-01-23T11:00:25;8.00;99.90
62916;DHT22;49010;51.230;-2.306;2023-01-23T11:04:10;8.80;99.90
62916;DHT22;49010;51.230;-2.306;2023-01-23T11:07:53;9.60;99.90
62916;DHT22;49010;51.230;-2.306;2023-01-23T11:11:36;10.30;99.90
62916;DHT22;49010;51.230;-2.306;2023-01-23T11:15:30;11.00;99.90
62916;DHT22;49010;51.230;-2.306;2023-01-23T11:19:19;11.60;99.90
62916;DHT22;49010;51.230;-2.306;2023-01-23T11:27:01;12.70;99.90
62916;DHT22;49010;51.230;-2.306;2023-01-23T11:35:19;13.90;99.90
62916;DHT22;49010;51.230;-2.306;2023-01-23T11:40:13;14.30;99.90
62916;DHT22;49010;51.230;-2.306;2023-01-23T11:43:28;14.80;99.90
62916;DHT22;49010;51.230;-2.306;2023-01-23T11:51:51;15.70;99.90
62916;DHT22;49010;51.230;-2.306;2023-01-23T12:11:38;16.70;99.90
62916;DHT22;49010;51.230;-2.306;2023-01-23T12:19:20;15.20;99.90
62916;DHT22;49010;51.230;-2.306;2023-01-23T12:23:21;14.50;99.90
62916;DHT22;49010;51.230;-2.306;2023-01-23T12:27:37;14.30;99.90
62916;DHT22;49010;51.230;-2.306;2023-01-23T12:35:40;15.40;99.90
62916;DHT22;49010;51.230;-2.306;2023-01-23T12:43:49;15.90;99.90
62916;DHT22;49010;51.230;-2.306;2023-01-23T12:48:05;15.90;99.90
62916;DHT22;49010;51.230;-2.306;2023-01-23T12:51:46;15.80;99.90
62916;DHT22;49010;51.230;-2.306;2023-01-23T12:55:32;15.60;99.90
62916;DHT22;49010;51.230;-2.306;2023-01-23T13:11:12;14.00;99.90
62916;DHT22;49010;51.230;-2.306;2023-01-23T13:19:26;12.60;99.90
62916;DHT22;49010;51.230;-2.306;2023-01-23T13:23:33;12.00;99.90
62916;DHT22;49010;51.230;-2.306;2023-01-23T13:27:54;11.50;99.90
62916;DHT22;49010;51.230;-2.306;2023-01-23T13:31:43;11.20;99.90
62916;DHT22;49010;51.230;-2.306;2023-01-23T13:39:27;11.30;99.90
62916;DHT22;49010;51.230;-2.306;2023-01-23T13:47:33;10.60;99.90
62916;DHT22;49010;51.230;-2.306;2023-01-23T13:51:50;10.30;99.90
62916;DHT22;49010;51.230;-2.306;2023-01-23T13:55:45;10.20;99.90
62916;DHT22;49010;51.230;-2.306;2023-01-23T14:00:00;10.40;99.90
62916;DHT22;49010;51.230;-2.306;2023-01-23T14:04:04;10.50;99.90
62916;DHT22;49010;51.230;-2.306;2023-01-23T14:08:23;10.50;99.90
62916;DHT22;49010;51.230;-2.306;2023-01-23T14:12:28;10.20;99.90
62916;DHT22;49010;51.230;-2.306;2023-01-23T14:16:24;9.90;99.90
62916;DHT22;49010;51.230;-2.306;2023-01-23T14:20:19;9.60;99.90
62916;DHT22;49010;51.230;-2.306;2023-01-23T14:24:20;9.30;99.90
62916;DHT22;49010;51.230;-2.306;2023-01-23T14:28:04;9.10;99.90
62916;DHT22;49010;51.230;-2.306;2023-01-23T14:31:46;8.90;99.90
62916;DHT22;49010;51.230;-2.306;2023-01-23T14:35:30;8.70;99.90
62916;DHT22;49010;51.230;-2.306;2023-01-23T14:39:19;8.50;99.90
62916;DHT22;49010;51.230;-2.306;2023-01-23T14:43:04;8.50;99.90
62916;DHT22;49010;51.230;-2.306;2023-01-23T14:46:53;8.40;99.90
62916;DHT22;49010;51.230;-2.306;2023-01-23T14:50:35;8.50;99.90
62916;DHT22;49010;51.230;-2.306;2023-01-23T14:54:18;8.90;99.90
62916;DHT22;49010;51.230;-2.306;2023-01-23T14:58:03;10.00;99.90
62916;DHT22;49010;51.230;-2.306;2023-01-23T15:01:56;11.00;99.90
62916;DHT22;49010;51.230;-2.306;2023-01-23T15:05:38;11.80;99.90
62916;DHT22;49010;51.230;-2.306;2023-01-23T15:09:29;12.20;99.90
62916;DHT22;49010;51.230;-2.306;2023-01-23T15:13:23;12.70;99.90
62916;DHT22;49010;51.230;-2.306;2023-01-23T15:17:19;12.90;99.90
62916;DHT22;49010;51.230;-2.306;2023-01-23T15:21:04;12.80;99.90
62916;DHT22;49010;51.230;-2.306;2023-01-23T15:24:46;12.00;99.90
62916;DHT22;49010;51.230;-2.306;2023-01-23T15:28:38;11.30;99.90
62916;DHT22;49010;51.230;-2.306;2023-01-23T15:32:24;10.70;99.90
62916;DHT22;49010;51.230;-2.306;2023-01-23T15:36:16;10.00;99.90
62916;DHT22;49010;51.230;-2.306;2023-01-23T15:40:02;9.60;99.90
62916;DHT22;49010;51.230;-2.306;2023-01-23T15:43:47;9.10;99.90
62916;DHT22;49010;51.230;-2.306;2023-01-23T15:47:30;8.90;99.90
62916;DHT22;49010;51.230;-2.306;2023-01-23T15:51:12;8.70;99.90
62916;DHT22;49010;51.230;-2.306;2023-01-23T15:54:59;8.50;99.90
62916;DHT22;49010;51.230;-2.306;2023-01-23T15:58:43;8.30;99.90
62916;DHT22;49010;51.230;-2.306;2023-01-23T16:02:25;8.10;99.90
62916;DHT22;49010;51.230;-2.306;2023-01-23T16:06:18;7.90;99.90
62916;DHT22;49010;51.230;-2.306;2023-01-23T16:13:56;7.70;99.90
62916;DHT22;49010;51.230;-2.306;2023-01-23T16:17:38;7.70;99.90
62916;DHT22;49010;51.230;-2.306;2023-01-23T16:21:28;7.80;99.90
62916;DHT22;49010;51.230;-2.306;2023-01-23T16:25:18;7.90;99.90
62916;DHT22;49010;51.230;-2.306;2023-01-23T16:29:00;7.90;99.90
62916;DHT22;49010;51.230;-2.306;2023-01-23T16:32:54;7.70;99.90
62916;DHT22;49010;51.230;-2.306;2023-01-23T16:36:37;7.40;99.90
62916;DHT22;49010;51.230;-2.306;2023-01-23T16:40:30;7.10;99.90
62916;DHT22;49010;51.230;-2.306;2023-01-23T16:44:17;6.90;99.90
62916;DHT22;49010;51.230;-2.306;2023-01-23T16:47:59;6.60;99.90
62916;DHT22;49010;51.230;-2.306;2023-01-23T16:51:45;6.50;99.90
62916;DHT22;49010;51.230;-2.306;2023-01-23T16:55:33;6.30;99.90
62916;DHT22;49010;51.230;-2.306;2023-01-23T16:59:27;6.10;99.90
62916;DHT22;49010;51.230;-2.306;2023-01-23T17:03:20;5.90;99.90
62916;DHT22;49010;51.230;-2.306;2023-01-23T17:07:04;5.80;99.90
62916;DHT22;49010;51.230;-2.306;2023-01-23T17:10:52;5.60;99.90
62916;DHT22;49010;51.230;-2.306;2023-01-23T17:14:34;5.50;99.90
62916;DHT22;49010;51.230;-2.306;2023-01-23T17:18:26;5.30;99.90
62916;DHT22;49010;51.230;-2.306;2023-01-23T17:22:23;5.20;99.90
62916;DHT22;49010;51.230;-2.306;2023-01-23T17:26:27;5.10;99.90
62916;DHT22;49010;51.230;-2.306;2023-01-23T17:30:29;4.90;99.90
62916;DHT22;49010;51.230;-2.306;2023-01-23T17:34:25;4.80;99.90
62916;DHT22;49010;51.230;-2.306;2023-01-23T17:38:20;4.70;99.90
62916;DHT22;49010;51.230;-2.306;2023-01-23T17:42:02;4.60;99.90
62916;DHT22;49010;51.230;-2.306;2023-01-23T17:45:46;4.50;99.90
62916;DHT22;49010;51.230;-2.306;2023-01-23T17:49:30;4.40;99.90
62916;DHT22;49010;51.230;-2.306;2023-01-23T17:53:13;4.30;99.90
62916;DHT22;49010;51.230;-2.306;2023-01-23T17:56:56;4.20;99.90
62916;DHT22;49010;51.230;-2.306;2023-01-23T18:00:38;4.00;99.90
62916;DHT22;49010;51.230;-2.306;2023-01-23T18:04:22;3.90;99.90
62916;DHT22;49010;51.230;-2.306;2023-01-23T18:08:04;3.80;99.90
62916;DHT22;49010;51.230;-2.306;2023-01-23T18:11:46;3.70;99.90
62916;DHT22;49010;51.230;-2.306;2023-01-23T18:19:36;3.50;99.90
62916;DHT22;49010;51.230;-2.306;2023-01-23T18:23:18;3.40;99.90
62916;DHT22;49010;51.230;-2.306;2023-01-23T18:27:23;3.30;99.90
62916;DHT22;49010;51.230;-2.306;2023-01-23T18:31:21;3.20;99.90
62916;DHT22;49010;51.230;-2.306;2023-01-23T18:44:13;3.00;99.90
62916;DHT22;49010;51.230;-2.306;2023-01-23T18:47:55;2.90;99.90
62916;DHT22;49010;51.230;-2.306;2023-01-23T18:51:44;2.80;99.90
62916;DHT22;49010;51.230;-2.306;2023-01-23T19:03:37;2.70;99.90
62916;DHT22;49010;51.230;-2.306;2023-01-23T19:07:24;2.60;99.90
62916;DHT22;49010;51.230;-2.306;2023-01-23T19:15:27;2.50;99.90
62916;DHT22;49010;51.230;-2.306;2023-01-23T19:19:22;2.40;99.90
62916;DHT22;49010;51.230;-2.306;2023-01-23T19:27:21;2.20;99.90
62916;DHT22;49010;51.230;-2.306;2023-01-23T19:31:03;2.10;99.90
62916;DHT22;49010;51.230;-2.306;2023-01-23T19:34:48;2.10;99.90
62916;DHT22;49010;51.230;-2.306;2023-01-23T19:38:30;2.00;99.90
62916;DHT22;49010;51.230;-2.306;2023-01-23T19:42:12;1.90;99.90
62916;DHT22;49010;51.230;-2.306;2023-01-23T19:45:55;1.90;99.90
62916;DHT22;49010;51.230;-2.306;2023-01-23T19:49:37;1.80;99.90
62916;DHT22;49010;51.230;-2.306;2023-01-23T19:53:18;1.70;99.90
62916;DHT22;49010;51.230;-2.306;2023-01-23T19:57:00;1.70;99.90
62916;DHT22;49010;51.230;-2.306;2023-01-23T20:00:42;1.70;99.90
62916;DHT22;49010;51.230;-2.306;2023-01-23T20:04:24;1.60;99.90
62916;DHT22;49010;51.230;-2.306;2023-01-23T20:08:06;1.50;99.90
62916;DHT22;49010;51.230;-2.306;2023-01-23T20:11:50;1.50;99.90
62916;DHT22;49010;51.230;-2.306;2023-01-23T20:15:33;1.40;99.90
62916;DHT22;49010;51.230;-2.306;2023-01-23T20:19:15;1.40;99.90
62916;DHT22;49010;51.230;-2.306;2023-01-23T20:22:58;1.30;99.90
62916;DHT22;49010;51.230;-2.306;2023-01-23T20:26:43;1.30;99.90
62916;DHT22;49010;51.230;-2.306;2023-01-23T20:30:25;1.20;99.90
62916;DHT22;49010;51.230;-2.306;2023-01-23T20:34:07;1.10;99.90
62916;DHT22;49010;51.230;-2.306;2023-01-23T20:37:49;1.10;99.90
62916;DHT22;49010;51.230;-2.306;2023-01-23T20:41:31;1.00;99.90
62916;DHT22;49010;51.230;-2.306;2023-01-23T20:45:13;1.00;99.90
62916;DHT22;49010;51.230;-2.306;2023-01-23T20:48:55;0.90;99.90
62916;DHT22;49010;51.230;-2.306;2023-01-23T20:52:37;0.90;99.90
62916;DHT22;49010;51.230;-2.306;2023-01-23T20:56:37;0.80;99.90
62916;DHT22;49010;51.230;-2.306;2023-01-23T21:00:19;0.80;99.90
62916;DHT22;49010;51.230;-2.306;2023-01-23T21:04:01;0.70;99.90
62916;DHT22;49010;51.230;-2.306;2023-01-23T21:07:43;0.70;99.90
62916;DHT22;49010;51.230;-2.306;2023-01-23T21:11:25;0.60;99.90
62916;DHT22;49010;51.230;-2.306;2023-01-23T21:15:07;0.60;99.90
62916;DHT22;49010;51.230;-2.306;2023-01-23T21:18:49;0.50;99.90
62916;DHT22;49010;51.230;-2.306;2023-01-23T21:22:31;0.40;99.90
62916;DHT22;49010;51.230;-2.306;2023-01-23T21:26:17;0.40;99.90
62916;DHT22;49010;51.230;-2.306;2023-01-23T21:29:59;0.30;99.90
62916;DHT22;49010;51.230;-2.306;2023-01-23T21:33:42;0.30;99.90
62916;DHT22;49010;51.230;-2.306;2023-01-23T21:37:30;0.20;99.90
62916;DHT22;49010;51.230;-2.306;2023-01-23T21:41:14;0.20;99.90
62916;DHT22;49010;51.230;-2.306;2023-01-23T21:44:56;0.10;99.90
62916;DHT22;49010;51.230;-2.306;2023-01-23T21:48:38;0.10;99.90
62916;DHT22;49010;51.230;-2.306;2023-01-23T21:52:20;0.00;99.90
62916;DHT22;49010;51.230;-2.306;2023-01-23T21:56:02;0.00;99.90
62916;DHT22;49010;51.230;-2.306;2023-01-23T21:59:44;0.00;99.90
62916;DHT22;49010;51.230;-2.306;2023-01-23T22:03:46;-0.10;99.90
62916;DHT22;49010;51.230;-2.306;2023-01-23T22:07:28;-0.10;99.90
62916;DHT22;49010;51.230;-2.306;2023-01-23T22:11:10;-0.20;99.90
62916;DHT22;49010;51.230;-2.306;2023-01-23T22:14:52;-0.20;99.90
62916;DHT22;49010;51.230;-2.306;2023-01-23T22:18:34;-0.20;99.90
62916;DHT22;49010;51.230;-2.306;2023-01-23T22:22:15;-0.30;99.90
62916;DHT22;49010;51.230;-2.306;2023-01-23T22:26:00;-0.30;99.90
62916;DHT22;49010;51.230;-2.306;2023-01-23T22:29:42;-0.40;99.90
62916;DHT22;49010;51.230;-2.306;2023-01-23T22:33:24;-0.40;99.90
62916;DHT22;49010;51.230;-2.306;2023-01-23T22:37:20;-0.50;99.90
62916;DHT22;49010;51.230;-2.306;2023-01-23T22:41:04;-0.50;99.90
62916;DHT22;49010;51.230;-2.306;2023-01-23T22:44:46;-0.50;99.90
62916;DHT22;49010;51.230;-2.306;2023-01-23T22:48:32;-0.60;99.90
62916;DHT22;49010;51.230;-2.306;2023-01-23T22:52:14;-0.70;99.90
62916;DHT22;49010;51.230;-2.306;2023-01-23T22:55:56;-0.70;99.90
62916;DHT22;49010;51.230;-2.306;2023-01-23T22:59:37;-0.80;99.90
62916;DHT22;49010;51.230;-2.306;2023-01-23T23:03:20;-0.80;99.90
62916;DHT22;49010;51.230;-2.306;2023-01-23T23:07:02;-0.80;99.90
62916;DHT22;49010;51.230;-2.306;2023-01-23T23:10:44;-0.90;99.90
62916;DHT22;49010;51.230;-2.306;2023-01-23T23:14:26;-1.00;99.90
62916;DHT22;49010;51.230;-2.306;2023-01-23T23:18:07;-1.00;99.90
62916;DHT22;49010;51.230;-2.306;2023-01-23T23:21:49;-1.00;99.90
62916;DHT22;49010;51.230;-2.306;2023-01-23T23:25:33;-1.10;99.90
62916;DHT22;49010;51.230;-2.306;2023-01-23T23:29:15;-1.10;99.90
62916;DHT22;49010;51.230;-2.306;2023-01-23T23:32:57;-1.10;99.90
62916;DHT22;49010;51.230;-2.306;2023-01-23T23:36:39;-1.20;99.90
62916;DHT22;49010;51.230;-2.306;2023-01-23T23:40:21;-1.20;99.90
62916;DHT22;49010;51.230;-2.306;2023-01-23T23:44:03;-1.30;99.90
62916;DHT22;49010;51.230;-2.306;2023-01-23T23:47:45;-1.30;99.90
62916;DHT22;49010;51.230;-2.306;2023-01-23T23:51:30;-1.30;99.90
62916;DHT22;49010;51.230;-2.306;2023-01-23T23:55:12;-1.30;99.90
62916;DHT22;49010;51.230;-2.306;2023-01-23T23:58:54;-1.40;99.90
